createdAt,value
2022-12-04T00:01:09.294Z,100971.19
2022-12-04T00:03:36.533Z,100964.63
2022-12-04T00:06:15.154Z,100969.22
2022-12-04T00:08:42.638Z,100962.56
2022-12-04T00:11:10.810Z,100973.78
2022-12-04T00:13:38.075Z,100968.06
2022-12-04T00:16:06.349Z,100963.56
2022-12-04T00:18:32.832Z,100958.25
2022-12-04T00:20:59.256Z,100957.44
2022-12-04T00:23:25.641Z,100962.50
2022-12-04T00:25:51.971Z,100958.66
2022-12-04T00:28:19.148Z,100954.50
2022-12-04T00:30:46.094Z,100958.63
2022-12-04T00:33:13.754Z,100956.66
2022-12-04T00:35:40.559Z,100953.56
2022-12-04T00:38:07.366Z,100956.25
2022-12-04T00:40:33.896Z,100950.91
2022-12-04T00:43:00.368Z,100951.66
2022-12-04T00:45:26.812Z,100943.88
2022-12-04T00:47:53.182Z,100947.19
2022-12-04T00:50:19.669Z,100944.69
2022-12-04T00:52:46.182Z,100941.13
2022-12-04T00:55:12.783Z,100937.72
2022-12-04T00:57:39.143Z,100948.78
2022-12-04T01:00:06.641Z,100934.13
2022-12-04T01:02:33.043Z,100940.50
2022-12-04T01:05:02.178Z,100934.72
2022-12-04T01:07:28.645Z,100935.94
2022-12-04T01:09:55.248Z,100933.53
2022-12-04T01:12:21.792Z,100940.69
2022-12-04T01:14:48.140Z,100937.28
2022-12-04T01:17:14.480Z,100942.63
2022-12-04T01:19:40.880Z,100937.31
2022-12-04T01:22:07.237Z,100932.81
2022-12-04T01:24:33.647Z,100937.69
2022-12-04T01:26:59.985Z,100928.19
2022-12-04T01:29:26.354Z,100928.75
2022-12-04T01:31:52.771Z,100924.66
2022-12-04T01:34:19.273Z,100934.28
2022-12-04T01:36:46.186Z,100943.31
2022-12-04T01:39:12.538Z,100931.59
2022-12-04T01:41:38.900Z,100936.91
2022-12-04T01:44:20.594Z,100934.47
2022-12-04T01:46:58.315Z,100936.50
2022-12-04T01:49:33.862Z,100935.72
2022-12-04T01:52:05.203Z,100931.56
2022-12-04T01:54:37.222Z,100932.03
2022-12-04T01:57:12.315Z,100931.44
2022-12-04T01:59:47.768Z,100922.59
2022-12-04T02:02:22.702Z,100924.84
2022-12-04T02:04:50.613Z,100930.16
2022-12-04T02:07:16.988Z,100932.81
2022-12-04T02:09:43.640Z,100928.34
2022-12-04T02:12:21.196Z,100929.16
2022-12-04T02:14:53.538Z,100917.72
2022-12-04T02:17:28.727Z,100923.41
2022-12-04T02:20:07.622Z,100916.44
2022-12-04T02:22:52.639Z,100922.41
2022-12-04T02:25:30.902Z,100914.22
2022-12-04T02:28:09.858Z,100917.88
2022-12-04T02:30:40.353Z,100917.22
2022-12-04T02:33:18.601Z,100920.91
2022-12-04T02:36:16.123Z,100915.78
2022-12-04T02:38:47.529Z,100919.25
2022-12-04T02:41:36.837Z,100925.88
2022-12-04T02:44:15.290Z,100916.44
2022-12-04T02:46:48.765Z,100916.84
2022-12-04T02:49:22.057Z,100917.25
2022-12-04T02:51:50.618Z,100913.16
2022-12-04T02:54:25.466Z,100907.00
2022-12-04T02:56:53.081Z,100904.47
2022-12-04T02:59:25.579Z,100906.56
2022-12-04T03:01:56.915Z,100898.34
2022-12-04T03:04:27.121Z,100900.84
2022-12-04T03:07:05.088Z,100895.94
2022-12-04T03:09:37.633Z,100899.44
2022-12-04T03:12:13.066Z,100906.81
2022-12-04T03:14:44.844Z,100905.53
2022-12-04T03:17:19.812Z,100911.03
2022-12-04T03:19:51.386Z,100908.41
2022-12-04T03:22:21.026Z,100911.66
2022-12-04T03:24:52.740Z,100916.19
2022-12-04T03:27:24.536Z,100910.69
2022-12-04T03:29:58.086Z,100913.31
2022-12-04T03:32:33.228Z,100913.75
2022-12-04T03:35:07.852Z,100909.44
2022-12-04T03:37:47.045Z,100914.59
2022-12-04T03:40:25.465Z,100910.22
2022-12-04T03:43:00.475Z,100910.31
2022-12-04T03:45:36.486Z,100913.34
2022-12-04T03:48:11.049Z,100923.41
2022-12-04T03:50:42.271Z,100910.69
2022-12-04T03:53:17.458Z,100917.25
2022-12-04T03:55:58.357Z,100907.22
2022-12-04T03:58:30.547Z,100908.47
2022-12-04T04:00:58.210Z,100904.53
2022-12-04T04:03:29.741Z,100907.38
2022-12-04T04:06:02.596Z,100899.31
2022-12-04T04:08:34.393Z,100905.28
2022-12-04T04:11:09.963Z,100904.88
2022-12-04T04:13:52.862Z,100909.47
2022-12-04T04:16:22.590Z,100911.50
2022-12-04T04:18:52.276Z,100900.38
2022-12-04T04:21:23.290Z,100902.22
2022-12-04T04:23:51.251Z,100899.31
2022-12-04T04:26:18.208Z,100900.53
2022-12-04T04:28:44.564Z,100903.34
2022-12-04T04:31:16.663Z,100902.66
2022-12-04T04:33:53.998Z,100911.50
2022-12-04T04:36:46.158Z,100907.59
2022-12-04T04:39:22.733Z,100915.75
2022-12-04T04:42:14.837Z,100922.56
2022-12-04T04:44:48.728Z,100910.22
2022-12-04T04:47:52.868Z,100908.38
2022-12-04T04:50:20.779Z,100903.03
2022-12-04T04:52:53.222Z,100905.88
2022-12-04T04:55:20.915Z,100909.59
2022-12-04T04:57:47.516Z,100908.38
2022-12-04T05:00:20.123Z,100912.84
2022-12-04T05:02:46.853Z,100908.09
2022-12-04T05:05:13.523Z,100909.75
2022-12-04T05:07:40.053Z,100906.53
2022-12-04T05:10:08.049Z,100915.53
2022-12-04T05:12:34.537Z,100910.84
2022-12-04T05:15:00.962Z,100909.84
2022-12-04T05:17:27.309Z,100907.78
2022-12-04T05:19:54.012Z,100913.94
2022-12-04T05:22:41.843Z,100916.41
2022-12-04T05:25:08.438Z,100919.63
2022-12-04T05:27:34.798Z,100917.59
2022-12-04T05:30:01.133Z,100923.97
2022-12-04T05:32:29.060Z,100921.72
2022-12-04T05:34:56.480Z,100917.38
2022-12-04T05:37:23.978Z,100918.06
2022-12-04T05:39:50.425Z,100915.31
2022-12-04T05:42:16.855Z,100916.13
2022-12-04T05:44:43.245Z,100910.66
2022-12-04T05:47:09.659Z,100908.22
2022-12-04T05:49:36.086Z,100906.09
2022-12-04T05:52:04.491Z,100898.53
2022-12-04T05:54:31.334Z,100904.88
2022-12-04T05:56:57.668Z,100906.56
2022-12-04T05:59:23.984Z,100902.03
2022-12-04T06:01:50.374Z,100911.25
2022-12-04T06:04:16.828Z,100906.53
2022-12-04T06:06:43.181Z,100906.94
2022-12-04T06:09:11.302Z,100917.59
2022-12-04T06:11:39.724Z,100916.19
2022-12-04T06:14:08.014Z,100918.44
2022-12-04T06:16:37.371Z,100918.44
2022-12-04T06:19:07.536Z,100913.13
2022-12-04T06:21:36.562Z,100913.13
2022-12-04T06:24:04.009Z,100902.88
2022-12-04T06:26:30.807Z,100914.34
2022-12-04T06:28:58.561Z,100911.72
2022-12-04T06:31:26.918Z,100913.16
2022-12-04T06:33:54.509Z,100904.91
2022-12-04T06:36:21.629Z,100908.44
2022-12-04T06:38:49.677Z,100909.88
2022-12-04T06:41:19.277Z,100908.59
2022-12-04T06:43:45.941Z,100906.19
2022-12-04T06:46:15.297Z,100900.81
2022-12-04T06:48:42.754Z,100902.50
2022-12-04T06:51:15.299Z,100911.94
2022-12-04T06:53:41.898Z,100917.66
2022-12-04T06:56:11.457Z,100909.28
2022-12-04T06:58:37.815Z,100911.94
2022-12-04T07:01:12.854Z,100902.28
2022-12-04T07:03:40.152Z,100913.56
2022-12-04T07:06:14.661Z,100917.25
2022-12-04T07:08:42.031Z,100913.72
2022-12-04T07:11:09.216Z,100917.44
2022-12-04T07:13:36.086Z,100919.09
2022-12-04T07:16:04.533Z,100917.19
2022-12-04T07:18:32.152Z,100916.78
2022-12-04T07:20:59.067Z,100923.97
2022-12-04T07:23:25.682Z,100926.22
2022-12-04T07:25:52.028Z,100920.69
2022-12-04T07:28:18.356Z,100923.78
2022-12-04T07:30:44.670Z,100925.00
2022-12-04T07:33:11.005Z,100933.44
2022-12-04T07:35:37.302Z,100936.91
2022-12-04T07:38:03.695Z,100942.06
2022-12-04T07:40:30.103Z,100939.56
2022-12-04T07:42:56.477Z,100933.44
2022-12-04T07:45:22.821Z,100938.50
2022-12-04T07:47:49.143Z,100941.44
2022-12-04T07:50:15.566Z,100936.50
2022-12-04T07:52:41.885Z,100939.78
2022-12-04T07:55:08.741Z,100936.84
2022-12-04T07:57:35.046Z,100926.97
2022-12-04T08:00:01.365Z,100932.34
2022-12-04T08:02:27.684Z,100934.53
2022-12-04T08:04:54.067Z,100933.31
2022-12-04T08:07:20.470Z,100932.69
2022-12-04T08:09:46.796Z,100930.72
2022-12-04T08:12:13.151Z,100933.22
2022-12-04T08:14:39.473Z,100935.69
2022-12-04T08:17:05.816Z,100933.09
2022-12-04T08:19:32.223Z,100932.63
2022-12-04T08:21:58.529Z,100930.59
2022-12-04T08:24:24.875Z,100925.00
2022-12-04T08:26:51.207Z,100930.66
2022-12-04T08:29:17.556Z,100930.88
2022-12-04T08:31:43.914Z,100936.16
2022-12-04T08:34:10.265Z,100926.09
2022-12-04T08:36:36.596Z,100930.13
2022-12-04T08:39:03.303Z,100924.84
2022-12-04T08:41:29.635Z,100925.59
2022-12-04T08:43:56.281Z,100927.25
2022-12-04T08:46:24.322Z,100937.88
2022-12-04T08:48:50.792Z,100930.72
2022-12-04T08:51:20.328Z,100933.06
2022-12-04T08:53:47.195Z,100926.66
2022-12-04T08:56:14.210Z,100931.94
2022-12-04T08:58:40.640Z,100931.50
2022-12-04T09:01:09.180Z,100927.34
2022-12-04T09:03:36.211Z,100937.47
2022-12-04T09:06:04.631Z,100930.69
2022-12-04T09:08:31.910Z,100931.69
2022-12-04T09:11:16.570Z,100937.09
2022-12-04T09:13:44.207Z,100936.84
2022-12-04T09:16:21.307Z,100937.75
2022-12-04T09:18:48.324Z,100928.66
2022-12-04T09:21:16.977Z,100935.13
2022-12-04T09:23:43.782Z,100925.66
2022-12-04T09:26:26.789Z,100929.72
2022-12-04T09:28:54.453Z,100926.16
2022-12-04T09:31:22.012Z,100931.94
2022-12-04T09:33:48.780Z,100928.22
2022-12-04T09:36:15.799Z,100921.88
2022-12-04T09:38:47.499Z,100931.88
2022-12-04T09:41:25.991Z,100932.25
2022-12-04T09:44:02.068Z,100934.75
2022-12-04T09:46:51.447Z,100936.50
2022-12-04T09:49:27.415Z,100933.88
2022-12-04T09:51:58.215Z,100927.78
2022-12-04T09:54:29.611Z,100927.84
2022-12-04T09:57:02.895Z,100923.75
2022-12-04T09:59:31.880Z,100918.44
2022-12-04T10:02:28.450Z,100914.41
2022-12-04T10:04:55.798Z,100921.94
2022-12-04T10:07:27.191Z,100914.56
2022-12-04T10:10:08.901Z,100915.44
2022-12-04T10:13:05.364Z,100915.19
2022-12-04T10:15:56.734Z,100904.38
2022-12-04T10:18:28.925Z,100914.53
2022-12-04T10:21:06.075Z,100914.69
2022-12-04T10:24:16.152Z,100921.16
2022-12-04T10:26:47.642Z,100920.72
2022-12-04T10:29:23.750Z,100929.03
2022-12-04T10:31:53.250Z,100921.88
2022-12-04T10:34:25.243Z,100915.94
2022-12-04T10:36:54.238Z,100917.75
2022-12-04T10:39:35.286Z,100915.19
2022-12-04T10:42:11.767Z,100918.44
2022-12-04T10:44:38.790Z,100915.19
2022-12-04T10:47:06.265Z,100917.59
2022-12-04T10:49:36.034Z,100913.78
2022-12-04T10:52:03.523Z,100907.00
2022-12-04T10:54:37.287Z,100909.66
2022-12-04T10:57:09.718Z,100904.06
2022-12-04T10:59:49.605Z,100908.31
2022-12-04T11:02:27.425Z,100900.94
2022-12-04T11:05:22.077Z,100905.69
2022-12-04T11:07:49.231Z,100900.66
2022-12-04T11:10:56.220Z,100903.75
2022-12-04T11:13:22.543Z,100895.47
2022-12-04T11:15:59.225Z,100892.53
2022-12-04T11:18:28.767Z,100884.88
2022-12-04T11:21:01.500Z,100889.50
2022-12-04T11:23:32.345Z,100887.72
2022-12-04T11:26:05.595Z,100885.34
2022-12-04T11:28:41.639Z,100884.72
2022-12-04T11:31:16.134Z,100877.78
2022-12-04T11:33:45.618Z,100883.81
2022-12-04T11:36:32.094Z,100887.94
2022-12-04T11:39:17.898Z,100893.38
2022-12-04T11:41:44.593Z,100886.66
2022-12-04T11:44:49.492Z,100880.41
2022-12-04T11:47:18.241Z,100879.97
2022-12-04T11:49:44.602Z,100879.63
2022-12-04T11:52:31.840Z,100876.00
2022-12-04T11:55:08.405Z,100869.50
2022-12-04T11:57:47.552Z,100869.28
2022-12-04T12:00:20.496Z,100861.47
2022-12-04T12:02:55.399Z,100862.63
2022-12-04T12:06:12.119Z,100855.66
2022-12-04T12:08:44.515Z,100859.19
2022-12-04T12:11:46.673Z,100855.34
2022-12-04T12:14:32.427Z,100863.94
2022-12-04T12:17:15.247Z,100862.75
2022-12-04T12:19:44.252Z,100854.25
2022-12-04T12:22:16.563Z,100856.75
2022-12-04T12:25:15.839Z,100860.41
2022-12-04T12:28:13.333Z,100848.81
2022-12-04T12:30:54.564Z,100852.94
2022-12-04T12:33:26.210Z,100843.91
2022-12-04T12:36:03.050Z,100844.75
2022-12-04T12:38:37.488Z,100840.81
2022-12-04T12:41:13.322Z,100837.03
2022-12-04T12:43:40.886Z,100829.16
2022-12-04T12:46:16.278Z,100827.09
2022-12-04T12:49:12.075Z,100826.72
2022-12-04T12:52:05.314Z,100826.34
2022-12-04T12:54:45.848Z,100827.81
2022-12-04T12:57:36.341Z,100822.19
2022-12-04T13:00:19.552Z,100807.59
2022-12-04T13:02:52.003Z,100822.19
2022-12-04T13:05:25.243Z,100821.75
2022-12-04T13:08:01.863Z,100811.88
2022-12-04T13:10:37.226Z,100817.94
2022-12-04T13:13:13.391Z,100810.97
2022-12-04T13:15:48.047Z,100801.56
2022-12-04T13:18:24.847Z,100800.84
2022-12-04T13:20:55.381Z,100794.34
2022-12-04T13:23:37.210Z,100794.72
2022-12-04T13:26:06.533Z,100788.28
2022-12-04T13:28:54.809Z,100787.94
2022-12-04T13:31:42.538Z,100780.34
2022-12-04T13:34:14.780Z,100786.59
2022-12-04T13:36:51.957Z,100786.41
2022-12-04T13:39:52.917Z,100780.91
2022-12-04T13:42:25.727Z,100781.88
2022-12-04T13:45:03.097Z,100782.94
2022-12-04T13:47:34.555Z,100773.06
2022-12-04T13:50:12.681Z,100780.91
2022-12-04T13:52:41.367Z,100788.28
2022-12-04T13:55:35.057Z,100787.72
2022-12-04T13:58:10.207Z,100776.91
2022-12-04T14:00:38.580Z,100778.56
2022-12-04T14:03:20.881Z,100781.34
2022-12-04T14:05:47.459Z,100769.34
2022-12-04T14:10:42.598Z,100772.81
2022-12-04T14:13:21.516Z,100770.16
2022-12-04T14:15:48.157Z,100769.75
2022-12-04T14:18:27.662Z,100767.72
2022-12-04T14:20:59.819Z,100770.13
2022-12-04T14:23:34.944Z,100764.44
2022-12-04T14:26:01.486Z,100760.81
2022-12-04T14:28:30.780Z,100764.88
2022-12-04T14:31:18.577Z,100761.13
2022-12-04T14:33:49.411Z,100764.81
2022-12-04T14:36:24.102Z,100766.91
2022-12-04T14:39:08.225Z,100762.38
2022-12-04T14:41:34.781Z,100768.19
2022-12-04T14:44:01.266Z,100767.72
2022-12-04T14:46:39.111Z,100773.97
2022-12-04T14:49:23.430Z,100774.41
2022-12-04T14:51:54.653Z,100780.16
2022-12-04T14:54:43.296Z,100778.28
2022-12-04T14:57:33.926Z,100781.53
2022-12-04T15:00:00.911Z,100783.19
2022-12-04T15:02:38.747Z,100798.38
2022-12-04T15:05:10.309Z,100802.88
2022-12-04T15:07:37.307Z,100802.25
2022-12-04T15:10:19.448Z,100800.22
2022-12-04T15:12:51.844Z,100808.84
2022-12-04T15:15:22.942Z,100815.69
2022-12-04T15:18:16.953Z,100824.31
2022-12-04T15:20:49.094Z,100828.34
2022-12-04T15:23:18.695Z,100824.63
2022-12-04T15:25:56.432Z,100823.38
2022-12-04T15:28:50.658Z,100828.19
2022-12-04T15:31:28.493Z,100825.22
2022-12-04T15:34:02.056Z,100835.94
2022-12-04T15:36:45.594Z,100826.16
2022-12-04T15:39:16.800Z,100819.88
2022-12-04T15:41:43.181Z,100818.97
2022-12-04T15:44:21.438Z,100819.63
2022-12-04T15:46:47.808Z,100816.16
2022-12-04T15:49:20.280Z,100819.25
2022-12-04T15:51:47.787Z,100805.75
2022-12-04T15:54:25.914Z,100799.66
2022-12-04T15:57:03.834Z,100805.75
2022-12-04T15:59:31.969Z,100800.56
2022-12-04T16:02:07.622Z,100803.69
2022-12-04T16:04:34.938Z,100807.94
2022-12-04T16:07:01.606Z,100810.97
2022-12-04T16:09:28.765Z,100809.91
2022-12-04T16:12:03.563Z,100809.59
2022-12-04T16:14:29.834Z,100814.34
2022-12-04T16:17:04.144Z,100817.66
2022-12-04T16:19:36.784Z,100828.09
2022-12-04T16:22:12.886Z,100818.66
2022-12-04T16:24:39.697Z,100818.66
2022-12-04T16:27:12.568Z,100822.09
2022-12-04T16:29:39.066Z,100818.38
2022-12-04T16:32:05.743Z,100819.41
2022-12-04T16:34:32.312Z,100826.13
2022-12-04T16:36:59.264Z,100830.09
2022-12-04T16:39:25.610Z,100827.59
2022-12-04T16:41:51.958Z,100831.69
2022-12-04T16:44:18.301Z,100832.06
2022-12-04T16:46:44.763Z,100819.38
2022-12-04T16:49:12.316Z,100818.22
2022-12-04T16:51:43.051Z,100818.22
2022-12-04T16:54:11.476Z,100817.31
2022-12-04T16:56:37.794Z,100812.34
2022-12-04T16:59:08.942Z,100812.03
2022-12-04T17:01:45.541Z,100816.38
2022-12-04T17:04:12.718Z,100820.69
2022-12-04T17:06:39.708Z,100819.50
2022-12-04T17:09:06.539Z,100810.88
2022-12-04T17:11:32.930Z,100820.75
2022-12-04T17:13:59.296Z,100822.72
2022-12-04T17:16:25.742Z,100823.09
2022-12-04T17:18:52.188Z,100828.41
2022-12-04T17:21:18.659Z,100830.91
2022-12-04T17:23:45.106Z,100834.94
2022-12-04T17:26:14.485Z,100835.22
2022-12-04T17:28:41.782Z,100843.19
2022-12-04T17:31:19.983Z,100848.13
2022-12-04T17:33:46.657Z,100842.97
2022-12-04T17:36:15.648Z,100851.16
2022-12-04T17:38:42.449Z,100855.78
2022-12-04T17:41:11.194Z,100846.41
2022-12-04T17:43:37.510Z,100853.44
2022-12-04T17:46:09.892Z,100855.78
2022-12-04T17:48:36.402Z,100860.31
2022-12-04T17:51:09.324Z,100860.84
2022-12-04T17:53:35.792Z,100856.25
2022-12-04T17:56:07.980Z,100858.44
2022-12-04T17:58:34.990Z,100858.34
2022-12-04T18:01:07.322Z,100850.94
2022-12-04T18:03:34.472Z,100855.16
2022-12-04T18:06:01.389Z,100849.28
2022-12-04T18:08:27.837Z,100848.81
2022-12-04T18:10:56.007Z,100837.25
2022-12-04T18:13:22.579Z,100835.47
2022-12-04T18:15:49.337Z,100839.09
2022-12-04T18:18:15.780Z,100843.56
2022-12-04T18:20:42.165Z,100839.66
2022-12-04T18:23:08.778Z,100839.19
2022-12-04T18:25:35.265Z,100838.75
2022-12-04T18:28:01.708Z,100842.94
2022-12-04T18:30:28.277Z,100835.31
2022-12-04T18:32:54.892Z,100845.53
2022-12-04T18:35:21.230Z,100844.53
2022-12-04T18:37:47.792Z,100846.66
2022-12-04T18:40:14.236Z,100842.34
2022-12-04T18:42:40.686Z,100842.94
2022-12-04T18:45:08.008Z,100840.44
2022-12-04T18:47:34.609Z,100848.38
2022-12-04T18:50:01.213Z,100842.44
2022-12-04T18:52:27.624Z,100838.41
2022-12-04T18:54:53.994Z,100840.88
2022-12-04T18:57:20.541Z,100839.47
2022-12-04T18:59:48.362Z,100835.31
2022-12-04T19:02:14.813Z,100835.03
2022-12-04T19:04:41.201Z,100835.91
2022-12-04T19:07:07.942Z,100834.69
2022-12-04T19:10:09.934Z,100834.69
2022-12-04T19:12:21.059Z,100832.97
2022-12-04T19:14:47.750Z,100836.53
2022-12-04T19:17:14.146Z,100841.53
2022-12-04T19:19:40.721Z,100834.59
2022-12-04T19:22:07.505Z,100838.88
2022-12-04T19:24:34.072Z,100837.84
2022-12-04T19:27:00.530Z,100831.00
2022-12-04T19:29:26.965Z,100829.09
2022-12-04T19:31:58.852Z,100833.25
2022-12-04T19:34:26.224Z,100832.50
2022-12-04T19:36:54.439Z,100830.19
2022-12-04T19:39:20.782Z,100825.66
2022-12-04T19:41:47.379Z,100833.53
2022-12-04T19:44:46.973Z,100831.00
2022-12-04T19:47:00.548Z,100833.06
2022-12-04T19:49:27.455Z,100833.69
2022-12-04T19:51:54.008Z,100834.13
2022-12-04T19:54:20.524Z,100833.06
2022-12-04T19:56:50.142Z,100838.66
2022-12-04T19:59:17.660Z,100826.19
2022-12-04T20:01:47.250Z,100836.34
2022-12-04T20:04:13.703Z,100835.75
2022-12-04T20:06:43.265Z,100829.84
2022-12-04T20:09:12.580Z,100833.25
2022-12-04T20:11:39.872Z,100840.16
2022-12-04T20:14:07.003Z,100846.75
2022-12-04T20:16:34.877Z,100849.44
2022-12-04T20:19:03.177Z,100846.00
2022-12-04T20:21:29.825Z,100840.22
2022-12-04T20:23:57.749Z,100847.41
2022-12-04T20:26:27.342Z,100850.16
2022-12-04T20:28:56.589Z,100848.72
2022-12-04T20:31:31.204Z,100845.16
2022-12-04T20:33:59.403Z,100842.59
2022-12-04T20:36:28.403Z,100843.56
2022-12-04T20:38:57.938Z,100844.97
2022-12-04T20:41:26.175Z,100845.97
2022-12-04T20:43:52.525Z,100838.59
2022-12-04T20:46:22.255Z,100845.44
2022-12-04T20:48:50.403Z,100837.41
2022-12-04T20:51:21.276Z,100840.97
2022-12-04T20:53:48.848Z,100828.72
2022-12-04T20:56:16.628Z,100835.03
2022-12-04T20:58:43.175Z,100831.75
2022-12-04T21:01:12.023Z,100828.72
2022-12-04T21:03:38.475Z,100829.53
2022-12-04T21:06:05.073Z,100826.84
2022-12-04T21:08:31.434Z,100828.06
2022-12-04T21:10:57.962Z,100820.94
2022-12-04T21:13:24.298Z,100822.13
2022-12-04T21:15:50.641Z,100813.53
2022-12-04T21:18:17.033Z,100820.50
2022-12-04T21:20:43.370Z,100818.09
2022-12-04T21:23:09.713Z,100808.75
2022-12-04T21:25:36.353Z,100799.38
2022-12-04T21:28:02.691Z,100806.47
2022-12-04T21:30:29.010Z,100806.81
2022-12-04T21:32:55.324Z,100804.00
2022-12-04T21:35:21.631Z,100796.72
2022-12-04T21:37:47.947Z,100798.94
2022-12-04T21:40:14.297Z,100803.28
2022-12-04T21:42:40.662Z,100804.59
2022-12-04T21:45:07.408Z,100801.78
2022-12-04T21:47:35.404Z,100793.16
2022-12-04T21:50:01.794Z,100795.59
2022-12-04T21:52:28.283Z,100797.78
2022-12-04T21:54:55.153Z,100789.69
2022-12-04T21:57:22.204Z,100783.00
2022-12-04T21:59:50.943Z,100781.38
2022-12-04T22:02:17.363Z,100780.50
2022-12-04T22:04:43.738Z,100782.19
2022-12-04T22:07:10.210Z,100781.66
2022-12-04T22:09:37.688Z,100786.25
2022-12-04T22:12:26.439Z,100777.88
2022-12-04T22:14:51.221Z,100781.06
2022-12-04T22:17:17.530Z,100792.88
2022-12-04T22:19:43.857Z,100791.66
2022-12-04T22:22:10.182Z,100782.47
2022-12-04T22:24:36.516Z,100783.66
2022-12-04T22:27:02.877Z,100782.75
2022-12-04T22:32:15.654Z,100776.91
2022-12-04T22:34:41.981Z,100772.53
2022-12-04T22:37:08.349Z,100777.41
2022-12-04T22:39:34.649Z,100779.97
2022-12-04T22:42:01.047Z,100776.84
2022-12-04T22:44:27.388Z,100788.63
2022-12-04T22:46:54.957Z,100783.22
2022-12-04T22:49:21.434Z,100786.66
2022-12-04T22:51:47.771Z,100792.00
2022-12-04T22:54:14.877Z,100786.94
2022-12-04T22:56:41.315Z,100784.41
2022-12-04T22:59:07.669Z,100772.38
2022-12-04T23:01:34.487Z,100780.09
2022-12-04T23:04:02.711Z,100780.59
2022-12-04T23:06:31.443Z,100779.97
2022-12-04T23:09:08.352Z,100784.63
2022-12-04T23:11:35.887Z,100778.53
2022-12-04T23:14:08.277Z,100789.31
2022-12-04T23:16:36.551Z,100794.72
2022-12-04T23:19:03.779Z,100790.34
2022-12-04T23:21:30.133Z,100788.41
2022-12-04T23:23:57.210Z,100796.16
2022-12-04T23:26:26.699Z,100793.44
2022-12-04T23:28:53.293Z,100790.94
2022-12-04T23:31:19.843Z,100790.16
2022-12-04T23:33:46.452Z,100785.72
2022-12-04T23:36:14.209Z,100780.47
2022-12-04T23:38:42.981Z,100781.56
2022-12-04T23:41:15.445Z,100785.50
2022-12-04T23:43:42.755Z,100784.56
2022-12-04T23:46:11.672Z,100778.22
2022-12-04T23:48:39.208Z,100780.69
2022-12-04T23:51:06.241Z,100775.44
2022-12-04T23:53:32.615Z,100778.31
2022-12-04T23:56:02.372Z,100785.00
2022-12-04T23:58:28.771Z,100777.78
